»·PEaware :: N16RD KKNB-KLGB

N16RD :: KKNB-KLGB

FLIGHT INFORMATION

Flight Status: Arrived
Operator: Privately registered:
United States
More flights under this callsign
Pilot: Brett B. (12105)
Aircraft: BEECH AIRCRAFT SUPER KING AIR 350
(B350)
More flights by this aircraft type
Origin: KKNB Kanab Mun
United States
Destination: KLGB Long Beach
United States
More flights between these airports :: More routes between these airports
Route: +HEC KAYOH7
File this flight plan on PilotEdge
Remarks: alphabet challenge
Altitude:
(Current/Filed)
12,000ft
Speed:
(Current/Filed)
235kts
Departed: 26-Oct-17 07:48 PM
Arrived: 26-Oct-17 09:09 PM
Distance/Time
Traveled:
335nm/1:21
Distance/Time
To Go:
Arrived

Flight Plot

Page will automatically refresh every two minutes.

Flight plan parsing failed; only flown route is shown


Map Options




Map Legend


Flown Route
Filed Route
Departure Airport
Arrival Airport
Navaid (VOR, NDB)
Fix

Horizontal Profiles

Position Reports

Time Latitude Longitude Heading Altitude Ground
Speed
26-Oct-17 19:52 36.487744 -113.340953 261 9473ft 223kts
26-Oct-17 19:53 36.473845 -113.415987 254 9497ft 222kts
26-Oct-17 19:54 36.460870 -113.483655 258 11192ft 200kts
26-Oct-17 19:55 36.446354 -113.552653 244 12144ft 211kts
26-Oct-17 19:56 36.420786 -113.616539 234 12114ft 204kts
26-Oct-17 19:57 36.390008 -113.676424 230 12107ft 206kts
26-Oct-17 19:58 36.358305 -113.734819 232 12104ft 203kts
26-Oct-17 19:59 36.328128 -113.789789 233 12101ft 202kts
26-Oct-17 20:00 36.296642 -113.846868 233 12102ft 218kts
26-Oct-17 20:01 36.260834 -113.911671 235 12065ft 232kts
26-Oct-17 20:02 36.225287 -113.975957 235 12037ft 233kts
26-Oct-17 20:03 36.187917 -114.043223 240 12035ft 247kts
26-Oct-17 20:04 36.147575 -114.116063 240 12037ft 261kts
26-Oct-17 20:05 36.107356 -114.188333 236 12008ft 242kts
26-Oct-17 20:06 36.069751 -114.255641 236 12007ft 236kts
26-Oct-17 20:07 36.031942 -114.323176 240 11998ft 245kts
26-Oct-17 20:08 35.991610 -114.395307 239 12022ft 252kts
26-Oct-17 20:09 35.953190 -114.463662 238 12004ft 237kts
26-Oct-17 20:10 35.915962 -114.529833 238 11999ft 234kts
26-Oct-17 20:11 35.878486 -114.596328 239 11991ft 237kts
26-Oct-17 20:12 35.840724 -114.663226 240 11989ft 243kts
26-Oct-17 20:13 35.800731 -114.734060 240 11917ft 261kts
26-Oct-17 20:14 35.759963 -114.805898 239 11989ft 254kts
26-Oct-17 20:15 35.719861 -114.876458 238 11995ft 243kts
26-Oct-17 20:16 35.681884 -114.943193 232 11991ft 234kts
26-Oct-17 20:17 35.643419 -115.010624 233 11981ft 250kts
26-Oct-17 20:18 35.602909 -115.081547 230 11988ft 253kts
26-Oct-17 20:19 35.564034 -115.148904 240 11986ft 235kts
26-Oct-17 20:20 35.526533 -115.214628 240 11990ft 237kts
26-Oct-17 20:21 35.487772 -115.282232 239 11960ft 245kts
26-Oct-17 20:22 35.449304 -115.349404 230 11977ft 231kts
26-Oct-17 20:23 35.411848 -115.414022 230 11980ft 240kts
26-Oct-17 20:24 35.372196 -115.482468 229 11980ft 247kts
26-Oct-17 20:25 35.332872 -115.550358 232 11970ft 250kts
26-Oct-17 20:26 35.294655 -115.616362 231 11975ft 223kts
26-Oct-17 20:27 35.259948 -115.675972 234 11977ft 209kts
26-Oct-17 20:28 35.226586 -115.733271 234 11983ft 205kts
26-Oct-17 20:29 35.193248 -115.790382 236 11995ft 206kts
26-Oct-17 20:30 35.159570 -115.848076 235 11987ft 214kts
26-Oct-17 20:31 35.123559 -115.909439 231 12000ft 231kts
26-Oct-17 20:32 35.084668 -115.975859 230 12017ft 247kts
26-Oct-17 20:33 35.044023 -116.044919 233 12010ft 256kts
26-Oct-17 20:34 35.002002 -116.116443 233 12009ft 260kts
26-Oct-17 20:35 34.966953 -116.176101 230 12017ft 257kts
26-Oct-17 20:36 34.918340 -116.258137 233 11990ft 258kts
26-Oct-17 20:37 34.883135 -116.317732 232 11982ft 260kts
26-Oct-17 20:38 34.840762 -116.389172 233 11982ft 261kts
26-Oct-17 20:39 34.789177 -116.470497 224 11994ft 257kts
26-Oct-17 20:40 34.739453 -116.533657 225 11981ft 259kts
26-Oct-17 20:41 34.697369 -116.585536 225 12068ft 258kts
26-Oct-17 20:42 34.646563 -116.647948 224 12076ft 260kts
26-Oct-17 20:43 34.596378 -116.709597 221 12088ft 250kts
26-Oct-17 20:44 34.546675 -116.770122 226 12073ft 257kts
26-Oct-17 20:45 34.496081 -116.831972 227 12073ft 258kts
26-Oct-17 20:46 34.445501 -116.893712 226 12082ft 258kts
26-Oct-17 20:47 34.394740 -116.955495 226 12090ft 259kts
26-Oct-17 20:48 34.343496 -117.017764 226 12025ft 260kts
26-Oct-17 20:49 34.292466 -117.079674 226 12025ft 259kts
26-Oct-17 20:50 34.227919 -117.115621 190 12027ft 261kts
26-Oct-17 20:51 34.156019 -117.128832 186 12027ft 261kts
26-Oct-17 20:52 34.084017 -117.139798 186 12025ft 261kts
26-Oct-17 20:53 34.012073 -117.150486 186 12025ft 261kts
26-Oct-17 20:54 33.939873 -117.161161 186 12026ft 261kts
26-Oct-17 20:55 33.867702 -117.171813 186 12021ft 261kts
26-Oct-17 20:56 33.796203 -117.183964 201 12017ft 258kts
26-Oct-17 20:57 33.773370 -117.254639 277 11872ft 243kts
26-Oct-17 20:58 33.777513 -117.340729 274 10446ft 265kts
26-Oct-17 20:59 33.778854 -117.426249 273 9035ft 239kts
26-Oct-17 21:00 33.779532 -117.502620 273 8019ft 209kts
26-Oct-17 21:01 33.780146 -117.565794 272 7440ft 175kts
26-Oct-17 21:02 33.780602 -117.623190 270 6448ft 182kts
26-Oct-17 21:03 33.772747 -117.687518 253 5453ft 202kts
26-Oct-17 21:04 33.754283 -117.746657 252 4438ft 180kts
26-Oct-17 21:05 33.737105 -117.800391 252 3545ft 168kts
26-Oct-17 21:06 33.720216 -117.853471 252 2446ft 175kts
26-Oct-17 21:07 33.705328 -117.905253 252 1513ft 149kts
26-Oct-17 21:08 33.696641 -117.950050 279 1504ft 134kts
26-Oct-17 21:09 33.704292 -117.993968 282 1527ft 144kts
26-Oct-17 21:10 33.720486 -118.041643 328 1470ft 140kts
26-Oct-17 21:11 33.750319 -118.069665 314 1579ft 151kts
26-Oct-17 21:12 33.778950 -118.104381 314 1070ft 127kts
26-Oct-17 21:13 33.803971 -118.134393 314 211ft 115kts
26-Oct-17 21:14 33.818418 -118.152286 296 64ft 21kts
26-Oct-17 21:15 33.818541 -118.153206 271 64ft 0kts
26-Oct-17 21:16 33.818583 -118.154682 271 64ft 5kts
26-Oct-17 21:17 33.818595 -118.155181 271 64ft 6kts
26-Oct-17 21:18 33.816536 -118.157362 181 64ft 12kts
26-Oct-17 21:19 33.813179 -118.157372 216 64ft 12kts
26-Oct-17 21:20 33.812864 -118.160679 175 64ft 7kts
26-Oct-17 21:21 33.812710 -118.157819 93 64ft 3kts
26-Oct-17 21:22 33.812709 -118.157780 94 64ft 0kts
26-Oct-17 21:23 33.812709 -118.157780 94 64ft 0kts
26-Oct-17 21:24 33.812709 -118.157780 94 64ft 0kts
26-Oct-17 21:25 33.812709 -118.157780 94 64ft 0kts
26-Oct-17 21:26 33.812709 -118.157780 94 64ft 0kts
26-Oct-17 21:27 33.812709 -118.157780 94 64ft 0kts
26-Oct-17 21:28 33.812709 -118.157780 94 64ft 0kts

Navigation Log

Ident Type
Flight plan parsing failed, navigation log unavailable